Time;durP1;ratioP1;P1;durP2;ratioP2;P2;SDS_P1;SDS_P2;PMS_P1;PMS_P2;Temp;Humidity;BMP_temperature;BMP_pressure;BME280_temperature;BME280_humidity;BME280_pressure;Samples;Min_cycle;Max_cycle;Signal;HPM_P1;HPM_P2
2023/03/27 00:00:31;;;;;;;0.10;0.10;;;;;;;-145.06;100.00;53783.03;10371659;28;20085;-83
2023/03/27 00:05:31;;;;;;;0.00;0.00;;;;;;;-145.06;100.00;53752.66;10372236;28;20636;-83
2023/03/27 00:10:31;;;;;;;0.10;0.10;;;;;;;-145.06;100.00;53797.22;10388506;28;20105;-83
2023/03/27 00:15:33;;;;;;;0.00;0.00;;;;;;;-145.06;100.00;53801.25;10370093;28;20053;-81
2023/03/27 00:20:36;;;;;;;0.10;0.10;;;;;;;-145.06;100.00;53803.28;10387404;28;20473;-81
2023/03/27 00:25:36;;;;;;;0.00;0.00;;;;;;;-145.06;100.00;53778.97;10370101;28;20037;-80
2023/03/27 00:30:37;;;;;;;0.10;0.10;;;;;;;-145.06;100.00;53789.09;10370236;28;20089;-82
2023/03/27 00:35:37;;;;;;;0.00;0.00;;;;;;;-145.06;100.00;53758.72;10369820;28;20261;-81
2023/03/27 00:40:38;;;;;;;0.10;0.10;;;;;;;-145.06;100.00;53746.56;10387414;28;20054;-81
2023/03/27 00:45:38;;;;;;;0.20;0.20;;;;;;;-145.06;100.00;53795.19;10370116;28;20053;-81
2023/03/27 00:50:41;;;;;;;0.00;0.00;;;;;;;-145.06;100.00;53781.00;10369029;28;20030;-82
2023/03/27 00:55:45;;;;;;;0.10;0.10;;;;;;;-145.06;100.00;53787.06;10369340;28;20018;-82
2023/03/27 01:00:50;;;;;;;0.10;0.10;;;;;;;-145.06;100.00;53764.81;10387058;28;20061;-81
2023/03/27 01:05:53;;;;;;;0.00;0.00;;;;;;;-145.06;100.00;53778.97;10379443;23;20049;-81
2023/03/27 01:11:29;;;;;;;0.00;0.00;;;;;;;-145.06;100.00;53791.13;10372619;28;20037;-81
2023/03/27 01:16:32;;;;;;;0.00;0.00;;;;;;;-145.06;100.00;53837.72;10373288;28;20037;-81
2023/03/27 01:21:50;;;;;;;0.10;0.10;;;;;;;-145.06;100.00;53774.94;10374995;28;20068;-80
2023/03/27 01:27:09;;;;;;;0.00;0.00;;;;;;;-145.06;100.00;53795.19;10387925;28;20025;-81
2023/03/27 01:32:31;;;;;;;0.10;0.10;;;;;;;-145.06;100.00;53805.31;10386139;28;20487;-80
2023/03/27 01:37:46;;;;;;;0.10;0.10;;;;;;;-145.06;100.00;53768.84;10393678;28;20133;-80
2023/03/27 01:43:00;;;;;;;0.20;0.20;;;;;;;-145.06;100.00;53778.97;10379113;28;20029;-80
2023/03/27 01:48:25;;;;;;;0.00;0.00;;;;;;;-145.06;100.00;53785.06;10366306;28;20493;-81
2023/03/27 01:53:35;;;;;;;0.15;0.15;;;;;;;-145.06;100.00;53787.06;10361809;28;20026;-81
2023/03/27 01:58:45;;;;;;;0.10;0.10;;;;;;;-145.06;100.00;53795.19;10383419;28;20048;-79
2023/03/27 02:03:53;;;;;;;0.10;0.10;;;;;;;-145.06;100.00;53813.41;10377528;28;20028;-80
2023/03/27 02:08:56;;;;;;;0.20;0.20;;;;;;;-145.06;100.00;53797.22;10376709;28;20041;-81
2023/03/27 02:14:05;;;;;;;0.00;0.00;;;;;;;-145.06;100.00;53774.94;10388369;28;20084;-81
2023/03/27 02:19:12;;;;;;;0.10;0.10;;;;;;;-145.06;100.00;53813.41;10380735;28;20060;-80
2023/03/27 02:24:15;;;;;;;0.10;0.10;;;;;;;-145.06;100.00;53795.19;10393229;28;20032;-80
2023/03/27 02:29:38;;;;;;;0.17;0.17;;;;;;;-145.06;100.00;53795.19;10398728;28;20092;-80
2023/03/27 02:35:01;;;;;;;0.10;0.10;;;;;;;-145.06;100.00;53770.88;10371588;28;20061;-81
2023/03/27 02:40:23;;;;;;;0.10;0.10;;;;;;;-145.06;100.00;53821.50;10384867;28;20177;-80
2023/03/27 02:45:35;;;;;;;0.08;0.08;;;;;;;-145.06;100.00;53791.13;10380045;28;20026;-81
2023/03/27 02:50:42;;;;;;;0.10;0.10;;;;;;;-145.06;100.00;53783.03;10381533;28;20098;-80
2023/03/27 02:55:49;;;;;;;0.08;0.08;;;;;;;-145.06;100.00;53825.56;10388657;28;20104;-80
2023/03/27 03:00:50;;;;;;;0.10;0.10;;;;;;;-145.06;100.00;53785.06;10401201;28;20479;-80
2023/03/27 03:05:51;;;;;;;0.20;0.20;;;;;;;-145.06;100.00;53756.69;10375966;28;20029;-81
2023/03/27 03:10:51;;;;;;;0.10;0.10;;;;;;;-145.06;100.00;53770.88;10368931;28;20033;-81
2023/03/27 03:15:51;;;;;;;0.10;0.10;;;;;;;-145.06;100.00;53811.38;10395966;28;20343;-81
2023/03/27 03:20:54;;;;;;;0.05;0.05;;;;;;;-145.06;100.00;53801.25;10377625;28;20033;-81
2023/03/27 03:25:55;;;;;;;0.17;0.17;;;;;;;-145.06;100.00;53815.44;10368587;28;20030;-81
2023/03/27 03:30:57;;;;;;;0.10;0.10;;;;;;;-145.06;100.00;53823.53;10367175;28;20018;-81
2023/03/27 03:35:59;;;;;;;0.10;0.10;;;;;;;-145.06;100.00;53791.13;10387141;28;20087;-82
2023/03/27 03:41:00;;;;;;;0.10;0.10;;;;;;;-145.06;100.00;53768.84;10376961;28;20022;-81
2023/03/27 03:46:01;;;;;;;0.10;0.10;;;;;;;-145.06;100.00;53813.41;10379423;28;20025;-82
2023/03/27 03:51:01;;;;;;;0.10;0.10;;;;;;;-145.06;100.00;53766.81;10387084;28;20025;-82
2023/03/27 03:56:02;;;;;;;0.10;0.10;;;;;;;-145.06;100.00;53815.44;10359107;28;20033;-81
2023/03/27 04:01:02;;;;;;;0.10;0.10;;;;;;;-145.06;100.00;53778.97;10359791;28;20117;-81
2023/03/27 04:06:06;;;;;;;0.10;0.10;;;;;;;-145.06;100.00;53795.19;10385641;28;20492;-81
2023/03/27 04:11:07;;;;;;;0.10;0.10;;;;;;;-145.06;100.00;53807.31;10397675;28;20440;-80
2023/03/27 04:16:08;;;;;;;0.20;0.20;;;;;;;-145.06;100.00;53825.56;10391400;28;20030;-81
2023/03/27 04:21:13;;;;;;;0.10;0.10;;;;;;;-145.06;100.00;53781.00;10368600;28;20018;-81
2023/03/27 04:26:14;;;;;;;0.00;0.00;;;;;;;-145.06;100.00;53793.16;10370137;28;20092;-80
2023/03/27 04:31:15;;;;;;;0.20;0.20;;;;;;;-145.06;100.00;53821.50;10389423;28;20045;-82
2023/03/27 04:36:15;;;;;;;0.00;0.00;;;;;;;-145.06;100.00;53805.31;10392852;28;20499;-81
2023/03/27 04:41:16;;;;;;;0.10;0.10;;;;;;;-145.06;100.00;53807.31;10381484;28;20017;-81
2023/03/27 04:46:16;;;;;;;0.17;0.17;;;;;;;-145.06;100.00;53795.19;10383545;28;20064;-81
2023/03/27 04:51:17;;;;;;;0.20;0.20;;;;;;;-145.06;100.00;53807.31;10383505;28;20113;-81
2023/03/27 04:56:17;;;;;;;0.10;0.10;;;;;;;-145.06;100.00;53805.31;10386133;28;20029;-81
2023/03/27 05:01:17;;;;;;;0.00;0.00;;;;;;;-145.06;100.00;53839.72;10388687;28;20281;-81
2023/03/27 05:06:18;;;;;;;0.00;0.00;;;;;;;-145.06;100.00;53762.78;10387385;28;20295;-81
2023/03/27 05:11:18;;;;;;;0.03;0.03;;;;;;;-145.06;100.00;53783.03;10372185;28;20026;-81
2023/03/27 05:16:19;;;;;;;0.03;0.03;;;;;;;-145.06;100.00;53821.50;10374306;28;20022;-81
2023/03/27 05:21:19;;;;;;;0.20;0.20;;;;;;;-145.06;100.00;53742.53;10389279;28;20105;-82
2023/03/27 05:26:21;;;;;;;0.20;0.20;;;;;;;-145.06;100.00;53750.63;10388459;28;20369;-82
2023/03/27 05:31:21;;;;;;;0.00;0.00;;;;;;;-145.06;100.00;53716.19;10363084;28;20330;-82
2023/03/27 05:36:21;;;;;;;0.10;0.10;;;;;;;-145.06;100.00;53732.41;10395912;28;20065;-81
2023/03/27 05:41:22;;;;;;;0.10;0.10;;;;;;;-145.06;100.00;53728.34;10394460;28;20115;-82
2023/03/27 05:46:23;;;;;;;0.00;0.00;;;;;;;-145.06;100.00;53700.00;10394056;28;20018;-81
2023/03/27 05:51:24;;;;;;;0.10;0.10;;;;;;;-145.06;100.00;53649.38;10398661;28;20025;-81
2023/03/27 05:56:25;;;;;;;0.00;0.00;;;;;;;-145.06;100.00;53655.44;10396480;28;20371;-82
2023/03/27 06:01:26;;;;;;;0.00;0.00;;;;;;;-145.06;100.00;53675.69;10387720;28;20013;-83
2023/03/27 06:06:27;;;;;;;0.00;0.00;;;;;;;-145.06;100.00;53633.19;10406780;28;20483;-82
2023/03/27 06:11:27;;;;;;;0.10;0.10;;;;;;;-145.06;95.70;53625.06;10400120;28;20033;-83
2023/03/27 06:16:27;;;;;;;0.00;0.00;;;;;;;-145.06;91.08;53604.81;10380994;28;20485;-83
2023/03/27 06:21:27;;;;;;;0.10;0.10;;;;;;;-145.06;76.16;53602.81;10383698;28;20022;-84
2023/03/27 06:26:28;;;;;;;0.10;0.10;;;;;;;-145.06;75.02;53578.50;10381739;28;20018;-84
2023/03/27 06:31:28;;;;;;;0.10;0.10;;;;;;;-145.06;66.13;53734.44;10381732;28;20037;-82
2023/03/27 06:36:31;;;;;;;0.10;0.10;;;;;;;-145.06;72.60;53621.03;10381524;28;20048;-82
2023/03/27 06:41:31;;;;;;;0.10;0.10;;;;;;;-145.06;80.45;53732.41;10378071;28;20520;-83
2023/03/27 06:46:31;;;;;;;0.10;0.10;;;;;;;-145.06;90.66;53606.84;10378644;28;20116;-83
2023/03/27 06:51:32;;;;;;;0.00;0.00;;;;;;;-145.06;87.51;53633.19;10397206;28;20037;-83
2023/03/27 06:56:32;;;;;;;0.20;0.20;;;;;;;-145.06;76.80;53594.69;10375622;28;20767;-84
2023/03/27 07:01:32;;;;;;;0.10;0.10;;;;;;;-145.06;77.44;53562.31;10402475;28;20503;-83
2023/03/27 07:06:33;;;;;;;0.10;0.10;;;;;;;-145.06;71.70;53726.31;10500469;23;20060;-79
2023/03/27 07:11:33;;;;;;;0.10;0.10;;;;;;;-145.06;83.11;53691.91;10510230;28;20052;-80
2023/03/27 07:16:33;;;;;;;0.10;0.10;;;;;;;-145.06;90.55;53720.25;10493693;28;20071;-80
2023/03/27 07:21:34;;;;;;;0.10;0.10;;;;;;;-145.06;94.55;53718.22;10492142;28;20028;-79
2023/03/27 07:26:34;;;;;;;0.10;0.10;;;;;;;-145.06;94.54;53633.19;10510163;28;20059;-81
2023/03/27 07:31:35;;;;;;;0.10;0.10;;;;;;;-145.06;92.48;53770.88;10493542;28;20113;-80
2023/03/27 07:36:35;;;;;;;0.10;0.10;;;;;;;-145.06;92.70;53712.16;10492168;28;20046;-82
2023/03/27 07:41:35;;;;;;;0.10;0.10;;;;;;;-145.06;100.00;53758.72;10512168;28;20024;-82
2023/03/27 07:46:36;;;;;;;0.00;0.00;;;;;;;-145.06;100.00;53704.06;10492028;28;20028;-82
2023/03/27 07:51:37;;;;;;;0.00;0.00;;;;;;;-145.06;100.00;53663.56;10509354;28;20028;-82
2023/03/27 07:56:39;;;;;;;0.00;0.00;;;;;;;-145.06;100.00;53702.03;10490080;28;20021;-81
2023/03/27 08:01:40;;;;;;;0.10;0.10;;;;;;;-145.06;100.00;53740.50;10489526;28;20115;-80
2023/03/27 08:06:41;;;;;;;0.00;0.00;;;;;;;-145.06;100.00;53673.69;10509803;28;20067;-82
2023/03/27 08:11:43;;;;;;;0.10;0.10;;;;;;;-145.06;99.31;53685.81;10511339;28;20082;-83
2023/03/27 08:16:43;;;;;;;0.00;0.00;;;;;;;-145.06;93.35;53621.03;10509550;28;20046;-83
2023/03/27 08:21:44;;;;;;;0.10;0.10;;;;;;;-145.06;83.37;53602.81;10492661;28;20117;-83
2023/03/27 08:26:45;;;;;;;0.03;0.03;;;;;;;-145.06;79.48;53560.28;10491443;28;20050;-83
2023/03/27 08:31:45;;;;;;;0.10;0.10;;;;;;;-145.06;83.72;53752.66;10491533;28;20442;-82
2023/03/27 08:36:46;;;;;;;0.10;0.10;;;;;;;-145.06;98.60;53783.03;10508382;28;20078;-83
2023/03/27 08:41:54;;;;;;;0.10;0.10;;;;;;;-145.06;100.00;53722.28;10490405;28;20399;-83
2023/03/27 08:47:03;;;;;;;0.05;0.05;;;;;;;-145.06;100.00;53789.09;10508269;28;20028;-82
2023/03/27 08:52:14;;;;;;;0.00;0.00;;;;;;;-145.06;100.00;53706.06;10490041;28;20446;-79
2023/03/27 08:57:20;;;;;;;0.00;0.00;;;;;;;-145.06;100.00;53726.31;10507035;28;20023;-81
2023/03/27 09:02:55;;;;;;;0.00;0.00;;;;;;;-145.06;100.00;53730.38;10490344;28;20024;-80
2023/03/27 09:08:12;;;;;;;0.00;0.00;;;;;;;-145.06;100.00;53728.34;10489607;28;20028;-84
2023/03/27 09:13:27;;;;;;;0.00;0.00;;;;;;;-145.06;100.00;53716.19;10506899;28;20092;-83
2023/03/27 09:19:12;;;;;;;0.00;0.00;;;;;;;-145.06;100.00;53754.69;10489552;28;20024;-82
2023/03/27 09:24:26;;;;;;;0.00;0.00;;;;;;;-145.06;100.00;53689.88;10426956;28;20063;-83
2023/03/27 09:29:33;;;;;;;0.03;0.03;;;;;;;-145.06;100.00;53679.75;10490875;28;20111;-81
2023/03/27 09:34:35;;;;;;;0.00;0.00;;;;;;;-145.06;96.62;53675.69;10508594;28;20171;-83
2023/03/27 09:39:40;;;;;;;0.00;0.00;;;;;;;-145.06;87.67;53720.25;10506644;28;20048;-83
2023/03/27 09:44:43;;;;;;;0.00;0.00;;;;;;;-145.06;84.65;53667.59;10490139;28;20032;-82
2023/03/27 09:49:55;;;;;;;0.00;0.00;;;;;;;-145.06;83.39;53673.69;10455050;28;20025;-81
2023/03/27 09:54:55;;;;;;;0.10;0.10;;;;;;;-145.06;84.17;53635.19;10447737;28;20017;-83
2023/03/27 09:59:59;;;;;;;0.10;0.10;;;;;;;-145.06;72.32;53661.53;10464777;28;20017;-84
2023/03/27 10:05:16;;;;;;;0.00;0.00;;;;;;;-145.06;70.07;53655.44;10464419;28;20301;-84
2023/03/27 10:10:19;;;;;;;0.10;0.10;;;;;;;-145.06;72.84;53683.81;10446409;28;20028;-82
2023/03/27 10:15:38;;;;;;;0.00;0.00;;;;;;;-145.06;76.41;53746.56;10447479;28;20033;-83
2023/03/27 10:20:49;;;;;;;0.10;0.10;;;;;;;-145.06;90.85;53762.78;10464022;28;20029;-83
2023/03/27 10:25:52;;;;;;;0.00;0.00;;;;;;;-145.06;95.15;53766.81;10463045;28;20029;-80
2023/03/27 10:31:01;;;;;;;0.10;0.10;;;;;;;-145.06;100.00;53762.78;10449353;28;20029;-81
2023/03/27 10:36:05;;;;;;;0.00;0.00;;;;;;;-145.06;100.00;53756.69;10452545;28;20040;-79
2023/03/27 10:41:13;;;;;;;0.00;0.00;;;;;;;-145.06;100.00;53795.19;10451074;28;20080;-83
2023/03/27 10:46:41;;;;;;;0.00;0.00;;;;;;;-145.06;100.00;53720.25;10472098;28;20111;-81
2023/03/27 10:51:41;;;;;;;0.00;0.00;;;;;;;-145.06;100.00;53724.31;10474685;28;20021;-81
2023/03/27 10:56:58;;;;;;;0.00;0.00;;;;;;;-145.06;100.00;53732.41;10479399;28;20031;-82
2023/03/27 11:02:09;;;;;;;0.00;0.00;;;;;;;-145.06;100.00;53754.69;10482983;28;20013;-82
2023/03/27 11:07:23;;;;;;;0.00;0.00;;;;;;;-145.06;100.00;53754.69;10481062;28;20082;-82
2023/03/27 11:12:26;;;;;;;0.00;0.00;;;;;;;-145.06;100.00;53762.78;10497462;28;20026;-82
2023/03/27 11:17:35;;;;;;;0.00;0.00;;;;;;;-145.06;100.00;53758.72;10473413;28;20093;-81
2023/03/27 11:22:46;;;;;;;0.00;0.00;;;;;;;-145.06;100.00;53776.94;10475271;28;20016;-80
2023/03/27 11:28:12;;;;;;;0.00;0.00;;;;;;;-145.06;100.00;53795.19;10493303;28;20054;-81
2023/03/27 11:33:25;;;;;;;0.00;0.00;;;;;;;-145.06;100.00;53766.81;10472477;28;20032;-80
2023/03/27 11:38:32;;;;;;;0.00;0.00;;;;;;;-145.06;100.00;53724.31;10493119;28;20021;-82
2023/03/27 11:43:36;;;;;;;0.00;0.00;;;;;;;-145.06;100.00;53783.03;10471839;28;20058;-83
2023/03/27 11:48:58;;;;;;;0.00;0.00;;;;;;;-145.06;100.00;53750.63;10493327;28;20045;-83
2023/03/27 11:54:19;;;;;;;0.00;0.00;;;;;;;-145.06;100.00;53732.41;10487424;28;20064;-83
2023/03/27 11:59:40;;;;;;;0.03;0.03;;;;;;;-145.06;100.00;53762.78;10484181;28;20016;-82
2023/03/27 12:05:02;;;;;;;0.00;0.00;;;;;;;-145.06;100.00;53766.81;10483340;28;20506;-81
2023/03/27 12:10:38;;;;;;;0.00;0.00;;;;;;;-145.06;100.00;53756.69;10486016;28;20388;-82
2023/03/27 12:16:07;;;;;;;0.00;0.00;;;;;;;-145.06;100.00;53754.69;10470008;28;20021;-82
2023/03/27 12:21:24;;;;;;;0.00;0.00;;;;;;;-145.06;100.00;53732.41;10490226;28;20070;-81
2023/03/27 12:26:31;;;;;;;0.00;0.00;;;;;;;-145.06;95.52;53754.69;10471242;28;20146;-82
2023/03/27 12:31:59;;;;;;;0.00;0.00;;;;;;;-145.06;94.90;53762.78;10475939;28;20035;-82
2023/03/27 12:37:00;;;;;;;0.00;0.00;;;;;;;-145.06;89.37;53730.38;10499179;28;20044;-82
2023/03/27 12:42:12;;;;;;;0.00;0.00;;;;;;;-145.06;94.18;53677.72;10447498;28;20475;-84
2023/03/27 12:47:12;;;;;;;0.00;0.00;;;;;;;-145.06;90.10;53689.88;10447358;28;20037;-81
2023/03/27 12:52:12;;;;;;;0.00;0.00;;;;;;;-145.06;90.08;53700.00;10464547;28;20118;-82
2023/03/27 12:57:21;;;;;;;0.00;0.00;;;;;;;-145.06;100.00;53722.28;10447667;28;20029;-80
2023/03/27 13:02:46;;;;;;;0.05;0.05;;;;;;;-145.06;100.00;53774.94;10445844;28;20121;-82
2023/03/27 13:07:58;;;;;;;0.00;0.00;;;;;;;-145.06;100.00;53760.75;10424851;23;20061;-82
2023/03/27 13:13:01;;;;;;;0.00;0.00;;;;;;;-145.06;100.00;53754.69;10395022;28;20021;-83
2023/03/27 13:18:20;;;;;;;0.00;0.00;;;;;;;-145.06;100.00;53754.69;10357209;28;20026;-83
2023/03/27 13:23:43;;;;;;;0.05;0.05;;;;;;;-145.06;100.00;53710.13;10369568;28;20098;-83
2023/03/27 13:28:50;;;;;;;0.00;0.00;;;;;;;-145.06;100.00;53728.34;10305961;28;20481;-83
2023/03/27 13:34:26;;;;;;;0.03;0.03;;;;;;;-145.06;90.23;53744.56;10362241;28;20404;-83
2023/03/27 13:39:39;;;;;;;0.00;0.00;;;;;;;-145.06;92.52;53736.44;10386190;28;20018;-83
2023/03/27 13:45:00;;;;;;;0.10;0.10;;;;;;;-145.06;85.44;53756.69;10354838;28;20053;-83
2023/03/27 13:50:39;;;;;;;0.00;0.00;;;;;;;-145.06;89.45;53716.19;10365374;28;20408;-83
2023/03/27 13:55:55;;;;;;;0.00;0.00;;;;;;;-145.06;95.94;53728.34;10292296;28;20081;-83
2023/03/27 14:01:08;;;;;;;0.05;0.05;;;;;;;-145.06;100.00;53754.69;10355841;28;20042;-83
2023/03/27 14:06:23;;;;;;;0.00;0.00;;;;;;;-145.06;100.00;53722.28;10370663;28;20540;-84
2023/03/27 14:11:45;;;;;;;0.00;0.00;;;;;;;-145.06;100.00;53762.78;10383208;28;20125;-83
2023/03/27 14:17:13;;;;;;;0.00;0.00;;;;;;;-145.06;100.00;53768.84;10377475;28;20042;-83
2023/03/27 14:22:29;;;;;;;0.00;0.00;;;;;;;-145.06;100.00;53781.00;10369995;28;20029;-83
2023/03/27 14:27:31;;;;;;;0.00;0.00;;;;;;;-145.06;100.00;53766.81;10371126;28;20018;-83
2023/03/27 14:32:32;;;;;;;0.00;0.00;;;;;;;-145.06;100.00;53766.81;10386606;28;20028;-82
2023/03/27 14:37:35;;;;;;;0.00;0.00;;;;;;;-145.06;100.00;53714.19;10382742;28;20036;-83
2023/03/27 14:42:35;;;;;;;0.03;0.03;;;;;;;-145.06;100.00;53712.16;10388711;28;20025;-84
2023/03/27 14:47:36;;;;;;;0.00;0.00;;;;;;;-145.06;100.00;53738.47;10375256;28;20114;-83
2023/03/27 14:52:36;;;;;;;0.00;0.00;;;;;;;-145.06;100.00;53732.41;10365761;28;20392;-84
2023/03/27 14:57:37;;;;;;;0.00;0.00;;;;;;;-145.06;93.25;53742.53;10380798;28;20137;-84
2023/03/27 15:02:38;;;;;;;0.00;0.00;;;;;;;-145.06;97.95;53742.53;10391267;28;20029;-83
2023/03/27 15:07:41;;;;;;;0.00;0.00;;;;;;;-145.06;85.16;53742.53;10370220;28;20026;-83
2023/03/27 15:12:46;;;;;;;0.00;0.00;;;;;;;-145.06;80.94;53748.59;10394646;28;20443;-83
2023/03/27 15:17:48;;;;;;;;;;;;;;;-145.06;81.18;53714.19;10386663;28;20022;-83
2023/03/27 15:23:00;;;;;;;0.00;0.00;;;;;;;-145.06;90.65;53742.53;10384498;28;19984;-83
2023/03/27 15:28:06;;;;;;;0.00;0.00;;;;;;;-145.06;93.73;53736.44;10366290;28;20025;-83
2023/03/27 15:33:14;;;;;;;0.00;0.00;;;;;;;-145.06;100.00;53726.31;10366495;28;20026;-83
2023/03/27 15:38:16;;;;;;;0.00;0.00;;;;;;;-145.06;99.24;53712.16;10363972;28;20147;-83
2023/03/27 15:43:22;;;;;;;0.00;0.00;;;;;;;-145.06;100.00;53746.56;10364404;28;20075;-83
2023/03/27 15:48:30;;;;;;;0.10;0.10;;;;;;;-145.06;100.00;53776.94;10415455;28;20396;-82
2023/03/27 15:53:42;;;;;;;0.00;0.00;;;;;;;-145.06;100.00;53750.63;10399897;28;20021;-82
2023/03/27 15:58:46;;;;;;;0.00;0.00;;;;;;;-145.06;100.00;53746.56;10390435;28;20025;-81
2023/03/27 16:03:49;;;;;;;0.00;0.00;;;;;;;-145.06;100.00;53742.53;10345808;28;20033;-81
2023/03/27 16:08:50;;;;;;;0.00;0.00;;;;;;;-145.06;100.00;53730.38;10379057;28;20036;-82
2023/03/27 16:13:57;;;;;;;0.00;0.00;;;;;;;-145.06;100.00;53768.84;10379578;28;20033;-82
2023/03/27 16:19:01;;;;;;;0.00;0.00;;;;;;;-145.06;100.00;53724.31;10402206;28;20030;-82
2023/03/27 16:24:02;;;;;;;0.00;0.00;;;;;;;-145.06;100.00;53738.47;10420250;28;20473;-81
2023/03/27 16:29:03;;;;;;;0.00;0.00;;;;;;;-145.06;100.00;53766.81;10337087;28;20029;-82
2023/03/27 16:34:11;;;;;;;0.00;0.00;;;;;;;-145.06;100.00;53752.66;10336565;28;20081;-82
2023/03/27 16:39:12;;;;;;;0.00;0.00;;;;;;;-145.06;100.00;53774.94;10365038;28;20026;-82
2023/03/27 16:44:12;;;;;;;0.00;0.00;;;;;;;-145.06;100.00;53760.75;10379151;28;20017;-82
2023/03/27 16:49:12;;;;;;;0.00;0.00;;;;;;;-145.06;100.00;53778.97;10376169;28;20033;-82
2023/03/27 16:54:13;;;;;;;0.00;0.00;;;;;;;-145.06;100.00;53744.56;10410243;28;20348;-82
2023/03/27 16:59:14;;;;;;;0.00;0.00;;;;;;;-145.06;100.00;53750.63;10378029;28;20117;-82
2023/03/27 17:04:15;;;;;;;0.00;0.00;;;;;;;-145.06;100.00;53744.56;10359846;28;20037;-82
2023/03/27 17:09:16;;;;;;;0.00;0.00;;;;;;;-145.06;100.00;53758.72;10379651;28;20032;-82
2023/03/27 17:14:16;;;;;;;0.00;0.00;;;;;;;-145.06;100.00;53776.94;10377267;28;20084;-82
2023/03/27 17:19:18;;;;;;;0.00;0.00;;;;;;;-145.06;100.00;53726.31;10377231;28;20030;-82
2023/03/27 17:24:18;;;;;;;0.00;0.00;;;;;;;-145.06;100.00;53734.44;10392922;28;20080;-82
2023/03/27 17:29:19;;;;;;;0.00;0.00;;;;;;;-145.06;100.00;53760.75;10399217;28;20601;-82
2023/03/27 17:34:19;;;;;;;0.00;0.00;;;;;;;-145.06;100.00;53758.72;10399028;28;20078;-83
2023/03/27 17:39:20;;;;;;;0.00;0.00;;;;;;;-145.06;100.00;53752.66;10398311;28;20283;-83
2023/03/27 17:44:20;;;;;;;0.00;0.00;;;;;;;-145.06;100.00;53746.56;10364536;28;20026;-84
2023/03/27 17:49:21;;;;;;;0.00;0.00;;;;;;;-145.06;100.00;53758.72;10375326;28;20022;-83
2023/03/27 17:54:22;;;;;;;0.00;0.00;;;;;;;-145.06;100.00;53754.69;10361150;28;20057;-83
2023/03/27 17:59:24;;;;;;;0.00;0.00;;;;;;;-145.06;100.00;53766.81;10416664;28;20043;-83
2023/03/27 18:04:25;;;;;;;0.00;0.00;;;;;;;-145.06;100.00;53760.75;10397965;28;20329;-83
2023/03/27 18:09:25;;;;;;;0.00;0.00;;;;;;;-145.06;100.00;53787.06;10415821;28;20051;-84
2023/03/27 18:14:26;;;;;;;0.00;0.00;;;;;;;-145.06;100.00;53770.88;10373688;28;20037;-81
2023/03/27 18:19:27;;;;;;;0.00;0.00;;;;;;;-145.06;100.00;53766.81;10372457;28;20397;-81
2023/03/27 18:24:27;;;;;;;0.00;0.00;;;;;;;-145.06;100.00;53774.94;10363437;28;20419;-82
2023/03/27 18:29:29;;;;;;;0.00;0.00;;;;;;;-145.06;100.00;53791.13;10374790;28;20053;-81
2023/03/27 18:34:30;;;;;;;0.00;0.00;;;;;;;-145.06;100.00;53764.81;10366847;28;20017;-80
2023/03/27 18:39:33;;;;;;;0.10;0.10;;;;;;;-145.06;100.00;53811.38;10370426;28;20030;-81
2023/03/27 18:44:35;;;;;;;0.00;0.00;;;;;;;-145.06;100.00;53772.91;10367008;28;20021;-81
2023/03/27 18:49:35;;;;;;;0.00;0.00;;;;;;;-145.06;100.00;53758.72;10368902;28;20018;-81
2023/03/27 18:54:36;;;;;;;0.00;0.00;;;;;;;-145.06;100.00;53811.38;10384754;28;20026;-83
2023/03/27 18:59:37;;;;;;;0.00;0.00;;;;;;;-145.06;100.00;53791.13;10374049;28;20033;-80
2023/03/27 19:04:37;;;;;;;0.00;0.00;;;;;;;-145.06;100.00;53785.06;10394345;23;20040;-79
2023/03/27 19:09:37;;;;;;;0.00;0.00;;;;;;;-145.06;100.00;53791.13;10479926;28;20543;-79
2023/03/27 19:14:40;;;;;;;0.00;0.00;;;;;;;-145.06;100.00;53746.56;10459867;28;20022;-79
2023/03/27 19:19:40;;;;;;;0.00;0.00;;;;;;;-145.06;100.00;53762.78;10419457;28;20292;-80
2023/03/27 19:24:41;;;;;;;0.00;0.00;;;;;;;-145.06;100.00;53744.56;10432186;28;20170;-78
2023/03/27 19:29:41;;;;;;;0.00;0.00;;;;;;;-145.06;100.00;53776.94;10411079;28;20022;-79
2023/03/27 19:34:42;;;;;;;0.00;0.00;;;;;;;-145.06;100.00;53726.31;10419930;28;20028;-80
2023/03/27 19:39:42;;;;;;;0.00;0.00;;;;;;;-145.06;100.00;53785.06;10436245;28;20021;-79
2023/03/27 19:44:42;;;;;;;0.00;0.00;;;;;;;-145.06;100.00;53793.16;10418141;28;20527;-79
2023/03/27 19:49:43;;;;;;;0.00;0.00;;;;;;;-145.06;100.00;53823.53;10428577;28;20490;-79
2023/03/27 19:54:43;;;;;;;0.00;0.00;;;;;;;-145.06;100.00;53770.88;10434691;28;20387;-79
2023/03/27 19:59:43;;;;;;;0.00;0.00;;;;;;;-145.06;100.00;53768.84;10408594;28;20029;-79
2023/03/27 20:04:44;;;;;;;0.00;0.00;;;;;;;-145.06;100.00;53764.81;10407868;28;20345;-79
2023/03/27 20:09:44;;;;;;;0.00;0.00;;;;;;;-145.06;100.00;53781.00;10434787;28;20053;-80
2023/03/27 20:14:45;;;;;;;0.00;0.00;;;;;;;-145.06;100.00;53746.56;10443972;28;20037;-80
2023/03/27 20:19:48;;;;;;;0.00;0.00;;;;;;;-145.06;100.00;53762.78;10414248;28;20033;-79
2023/03/27 20:24:49;;;;;;;0.00;0.00;;;;;;;-145.06;100.00;53764.81;10425446;28;20032;-78
2023/03/27 20:29:49;;;;;;;0.00;0.00;;;;;;;-145.06;100.00;53758.72;10425387;28;20033;-79
2023/03/27 20:34:50;;;;;;;0.00;0.00;;;;;;;-145.06;100.00;53762.78;10413722;28;20426;-80
2023/03/27 20:39:50;;;;;;;0.10;0.10;;;;;;;-145.06;100.00;53750.63;10421732;28;20022;-80
2023/03/27 20:44:56;;;;;;;0.00;0.00;;;;;;;-145.06;100.00;53793.16;10425876;28;20402;-80
2023/03/27 20:49:57;;;;;;;0.00;0.00;;;;;;;-145.06;100.00;53791.13;10419852;28;20073;-78
2023/03/27 20:54:58;;;;;;;0.00;0.00;;;;;;;-145.06;100.00;53756.69;10434353;28;20027;-80
2023/03/27 20:59:58;;;;;;;0.00;0.00;;;;;;;-145.06;100.00;53807.31;10420701;28;20040;-80
2023/03/27 21:04:58;;;;;;;0.00;0.00;;;;;;;-145.06;100.00;53772.91;10434310;28;20025;-80
2023/03/27 21:09:59;;;;;;;0.00;0.00;;;;;;;-145.06;100.00;53791.13;10426261;28;20021;-80
2023/03/27 21:15:00;;;;;;;0.00;0.00;;;;;;;-145.06;100.00;53754.69;10444106;28;20041;-80
2023/03/27 21:20:00;;;;;;;0.05;0.05;;;;;;;-145.06;100.00;53746.56;10437352;28;20017;-80
2023/03/27 21:25:00;;;;;;;0.00;0.00;;;;;;;-145.06;100.00;53805.31;10427718;28;20040;-80
2023/03/27 21:30:02;;;;;;;0.00;0.00;;;;;;;-145.06;100.00;53746.56;10418676;28;20017;-80
2023/03/27 21:35:02;;;;;;;0.00;0.00;;;;;;;-145.06;100.00;53783.03;10423241;28;20027;-81
2023/03/27 21:40:03;;;;;;;0.00;0.00;;;;;;;-145.06;100.00;53764.81;10422663;28;20077;-80
2023/03/27 21:45:04;;;;;;;0.00;0.00;;;;;;;-145.06;100.00;53770.88;10419471;28;20334;-80
2023/03/27 21:50:05;;;;;;;0.00;0.00;;;;;;;-145.06;100.00;53787.06;10416923;28;20104;-79
2023/03/27 21:55:06;;;;;;;0.00;0.00;;;;;;;-145.06;100.00;53785.06;10438353;28;20437;-80
2023/03/27 22:00:08;;;;;;;0.00;0.00;;;;;;;-145.06;100.00;53776.94;10429275;28;20064;-80
2023/03/27 22:05:08;;;;;;;0.00;0.00;;;;;;;-145.06;100.00;53797.22;10414893;28;20033;-80
2023/03/27 22:10:09;;;;;;;0.00;0.00;;;;;;;-145.06;100.00;53774.94;10422001;28;20053;-80
2023/03/27 22:15:10;;;;;;;0.00;0.00;;;;;;;-145.06;100.00;53793.16;10436473;28;20049;-80
2023/03/27 22:20:11;;;;;;;0.00;0.00;;;;;;;-145.06;100.00;53795.19;10412940;28;20017;-81
2023/03/27 22:25:11;;;;;;;0.00;0.00;;;;;;;-145.06;100.00;53764.81;10437790;28;20036;-80
2023/03/27 22:30:12;;;;;;;0.00;0.00;;;;;;;-145.06;100.00;53758.72;10439471;28;20021;-80
2023/03/27 22:35:12;;;;;;;0.00;0.00;;;;;;;-145.06;100.00;53778.97;10446577;28;20468;-80
2023/03/27 22:40:12;;;;;;;0.00;0.00;;;;;;;-145.06;100.00;53815.44;10416395;28;20033;-80
2023/03/27 22:45:12;;;;;;;0.00;0.00;;;;;;;-145.06;100.00;53746.56;10436734;28;20120;-80
2023/03/27 22:50:13;;;;;;;0.10;0.10;;;;;;;-145.06;100.00;53803.28;10421293;28;20482;-81
2023/03/27 22:55:13;;;;;;;0.00;0.00;;;;;;;-145.06;100.00;53789.09;10443806;28;20264;-79